Portada
METAR-TAF:

METAR-TAF

Aeroports :

Santiago de Cuba, Cuba

latitud: 19-58N, longitud: 075-51W, altitud: 69 m

Observació

L'informe es va fer fa 1 hora i 3 minuts, a les 21:50 UTC
Vent 5 kt del Sud, variant entre Sud-Est i Sud/Sud-Oest
Temperatura 27°C
Humitat 62%
Pressió 1011 hPa
Visibilitat: 9000 m
Escasses núvols a una alçada de 2000 ft

METAR: MUCU 152150Z 17005KT 140V210 9000 FEW020 27/19 Q1011

Hora: 18:53 (22:53 UTC)

Pronòstic

L'informe es va fer fa 5 hores i 53 minuts, a les 17:00 UTC
Pronòstic vàlid del 15 a les 18 UTC al 16 a les 18 UTC
Vent 10 kt del Sud/Sud-Est
Visibilitat: 9000 m
Núvols disperses a una alçada de 2000 ft
Evolucionant progressivament
l' 16 a les 00 UTC al 16 a les 03 UTC
Vent 3 kt amb direcció variable
Evolucionant progressivament
l' 16 a les 14 UTC al 16 a les 17 UTC
Vent 8 kt del Sud

TAF: MUCU 151700Z 1518/1618 16010KT 9000 SCT020 BECMG 1600/1603 VRB03KT BECMG 1614/1617 17008KT

Observacions i pronòstics meteorològics de més de 4000 aeroports (METAR i TAF).

Les estacions disponibles són els punts grocs i vermells al mapa.

Posi el ratolí al punt desitjat per veure el nom de l'estació.

Feu clic per veure les observacions i els pronòstics meteorològics.

Per canviar el mapa: feu clic els botons verds amb una creu de color negre per apropar; al botó verd amb un guió per allunyar la imatge; o en les fletxes verdes per a mapes adjacents.


METAR-TAF: